Time;durP1;ratioP1;P1;durP2;ratioP2;P2;SDS_P1;SDS_P2;PMS_P1;PMS_P2;Temp;Humidity;BMP_temperature;BMP_pressure;BME280_temperature;BME280_humidity;BME280_pressure;Samples;Min_cycle;Max_cycle;Signal;HPM_P1;HPM_P2
2022/05/14 00:01:03;;;;;;;;;;;;;;;16.34;56.92;96444.78;10325475;28;96783;-67
2022/05/14 00:06:07;;;;;;;;;;;;;;;15.93;57.51;96435.41;10343242;28;96854;-67
2022/05/14 00:16:32;;;;;;;;;;;;;;;15.60;58.54;96440.91;10334948;28;97857;-67
2022/05/14 00:21:36;;;;;;;;;;;;;;;15.43;58.80;96450.66;10338517;28;96827;-67
2022/05/14 00:26:40;;;;;;;;;;;;;;;15.21;58.99;96446.16;10334704;28;98387;-67
2022/05/14 00:31:43;;;;;;;;;;;;;;;15.31;58.88;96437.06;10339624;28;96740;-66
2022/05/14 00:36:45;;;;;;;;;;;;;;;15.50;58.18;96427.91;10337370;28;96852;-67
2022/05/14 00:41:49;;;;;;;;;;;;;;;15.26;58.75;96435.94;10336800;28;96767;-67
2022/05/14 00:46:56;;;;;;;;;;;;;;;15.11;59.06;96434.03;10338082;28;97853;-67
2022/05/14 00:51:59;;;;;;;;;;;;;;;15.30;58.59;96424.06;10335298;28;96850;-67
2022/05/14 00:57:05;;;;;;;;;;;;;;;15.28;59.20;96426.06;10338083;28;97957;-67
2022/05/14 01:02:07;;;;;;;;;;;;;;;15.38;59.38;96425.84;10339393;28;96906;-67
2022/05/14 01:07:12;;;;;;;;;;;;;;;15.56;58.69;96428.22;10333898;28;96973;-67
2022/05/14 01:12:16;;;;;;;;;;;;;;;15.59;58.88;96427.91;10340944;28;97902;-67
2022/05/14 01:17:20;;;;;;;;;;;;;;;15.81;58.21;96421.81;10336534;28;97978;-67
2022/05/14 01:22:30;;;;;;;;;;;;;;;15.95;58.02;96422.06;10333536;28;97883;-67
2022/05/14 01:27:34;;;;;;;;;;;;;;;15.94;57.99;96415.94;10333437;28;96924;-67
2022/05/14 01:32:36;;;;;;;;;;;;;;;15.94;58.73;96423.03;10338544;28;97234;-67
2022/05/14 01:37:39;;;;;;;;;;;;;;;15.93;58.35;96427.50;10333689;28;99671;-66
2022/05/14 01:42:43;;;;;;;;;;;;;;;15.72;59.42;96411.50;10330582;28;96815;-67
2022/05/14 01:47:46;;;;;;;;;;;;;;;15.62;59.62;96415.19;10320055;28;97424;-66
2022/05/14 01:52:48;;;;;;;;;;;;;;;15.30;59.92;96414.38;10333944;28;97005;-67
2022/05/14 01:57:52;;;;;;;;;;;;;;;15.11;60.53;96413.00;10334764;28;97039;-66
2022/05/14 02:02:55;;;;;;;;;;;;;;;15.07;60.83;96416.13;10338233;28;96815;-66
2022/05/14 02:07:58;;;;;;;;;;;;;;;15.02;60.45;96406.13;10335333;28;96829;-67
2022/05/14 02:13:02;;;;;;;;;;;;;;;14.92;60.67;96405.50;10333473;28;98451;-67
2022/05/14 02:18:04;;;;;;;;;;;;;;;14.81;61.44;96408.50;10336374;28;97756;-67
2022/05/14 02:23:07;;;;;;;;;;;;;;;14.86;60.78;96407.00;10335527;28;96913;-66
2022/05/14 02:28:11;;;;;;;;;;;;;;;14.82;60.27;96402.25;10332137;28;97019;-66
2022/05/14 02:33:15;;;;;;;;;;;;;;;14.66;61.34;96403.97;10331508;28;96901;-67
2022/05/14 02:38:17;;;;;;;;;;;;;;;14.70;61.22;96407.88;10334994;28;96804;-66
2022/05/14 02:43:21;;;;;;;;;;;;;;;14.83;60.31;96401.25;10332035;28;96912;-66
2022/05/14 02:48:24;;;;;;;;;;;;;;;14.84;60.93;96397.66;10334469;28;96771;-66
2022/05/14 02:53:27;;;;;;;;;;;;;;;14.72;60.99;96390.13;10335140;28;97007;-66
2022/05/14 03:03:51;;;;;;;;;;;;;;;14.71;61.23;96393.75;10316891;28;97034;-66
2022/05/14 03:08:53;;;;;;;;;;;;;;;14.70;61.22;96386.84;10334952;28;96863;-66
2022/05/14 03:13:57;;;;;;;;;;;;;;;14.67;60.38;96391.63;10330966;28;96844;-66
2022/05/14 03:19:00;;;;;;;;;;;;;;;14.31;61.43;96387.59;10331287;28;96749;-66
2022/05/14 03:24:03;;;;;;;;;;;;;;;13.96;63.22;96389.59;10336839;28;96881;-66
2022/05/14 03:29:07;;;;;;;;;;;;;;;13.90;63.49;96394.69;10334642;28;97008;-66
2022/05/14 03:34:11;;;;;;;;;;;;;;;13.91;63.33;96384.00;10329885;28;97062;-66
2022/05/14 03:39:14;;;;;;;;;;;;;;;13.97;62.56;96386.00;10329425;28;97056;-67
2022/05/14 03:44:18;;;;;;;;;;;;;;;13.96;62.69;96386.97;10334662;28;96868;-66
2022/05/14 03:49:21;;;;;;;;;;;;;;;14.12;62.38;96390.56;10329279;28;96860;-66
2022/05/14 03:54:23;;;;;;;;;;;;;;;14.30;61.54;96388.56;10335376;28;96700;-66
2022/05/14 03:59:27;;;;;;;;;;;;;;;14.33;61.68;96390.91;10333512;28;96894;-66
2022/05/14 04:04:30;;;;;;;;;;;;;;;14.36;61.18;96398.44;10331225;28;97292;-66
2022/05/14 04:09:33;;;;;;;;;;;;;;;14.25;61.46;96398.75;10334174;28;96914;-66
2022/05/14 04:14:37;;;;;;;;;;;;;;;14.17;61.92;96401.41;10338260;28;96896;-66
2022/05/14 04:19:39;;;;;;;;;;;;;;;14.10;62.49;96414.38;10339854;28;99340;-66
2022/05/14 04:24:42;;;;;;;;;;;;;;;13.88;62.46;96413.25;10339488;28;97128;-66
2022/05/14 04:29:46;;;;;;;;;;;;;;;13.60;63.61;96413.56;10339404;28;97962;-66
2022/05/14 04:34:49;;;;;;;;;;;;;;;13.41;63.59;96404.19;10339105;28;96917;-66
2022/05/14 04:39:51;;;;;;;;;;;;;;;13.65;63.04;96415.66;10336568;28;96944;-66
2022/05/14 04:44:57;;;;;;;;;;;;;;;13.70;63.41;96417.81;10340673;28;96962;-66
2022/05/14 04:49:59;;;;;;;;;;;;;;;13.86;62.82;96415.19;10338691;28;96839;-66
2022/05/14 04:55:02;;;;;;;;;;;;;;;13.95;62.30;96424.72;10335452;28;96822;-66
2022/05/14 05:00:06;;;;;;;;;;;;;;;14.00;62.04;96422.44;10340815;28;96750;-66
2022/05/14 05:05:10;;;;;;;;;;;;;;;14.11;62.01;96428.34;10338783;28;96898;-66
2022/05/14 05:10:13;;;;;;;;;;;;;;;14.34;62.06;96429.31;10334378;28;96953;-66
2022/05/14 05:15:17;;;;;;;;;;;;;;;14.60;62.14;96435.38;10341556;28;98982;-66
2022/05/14 05:20:20;;;;;;;;;;;;;;;14.95;60.97;96431.47;10337486;28;99719;-66
2022/05/14 05:25:23;;;;;;;;;;;;;;;15.28;61.21;96437.41;10333864;28;96746;-66
2022/05/14 05:30:27;;;;;;;;;;;;;;;15.54;61.01;96446.81;10338339;28;96831;-66
2022/05/14 05:35:30;;;;;;;;;;;;;;;15.63;61.09;96439.72;10337005;28;97043;-66
2022/05/14 05:40:33;;;;;;;;;;;;;;;15.76;60.80;96444.41;10336430;28;96992;-66
2022/05/14 05:45:37;;;;;;;;;;;;;;;15.88;60.42;96443.81;10337165;28;96848;-66
2022/05/14 05:50:40;;;;;;;;;;;;;;;16.00;60.22;96438.16;10337606;28;97028;-66
2022/05/14 06:01:04;;;;;;;;;;;;;;;16.05;60.35;96446.31;10319916;28;96777;-66
2022/05/14 06:06:08;;;;;;;;;;;;;;;16.05;61.10;96454.22;10340470;28;96757;-67
2022/05/14 06:11:10;;;;;;;;;;;;;;;16.03;60.89;96450.94;10336941;28;96948;-66
2022/05/14 06:16:15;;;;;;;;;;;;;;;16.13;60.43;96446.25;10331441;28;97881;-66
2022/05/14 06:21:18;;;;;;;;;;;;;;;16.20;60.44;96452.47;10337590;28;96789;-66
2022/05/14 06:26:21;;;;;;;;;;;;;;;16.30;60.12;96459.31;10335874;28;96846;-66
2022/05/14 06:31:25;;;;;;;;;;;;;;;16.39;60.24;96450.31;10332306;28;96811;-66
2022/05/14 06:36:28;;;;;;;;;;;;;;;16.45;59.99;96460.19;10332692;28;96889;-66
2022/05/14 06:41:31;;;;;;;;;;;;;;;16.60;59.97;96457.53;10335401;28;97008;-66
2022/05/14 06:46:36;;;;;;;;;;;;;;;16.81;59.77;96446.31;10333527;28;96950;-66
2022/05/14 06:51:40;;;;;;;;;;;;;;;16.96;59.44;96446.31;10334702;28;96779;-66
2022/05/14 06:56:44;;;;;;;;;;;;;;;17.10;59.34;96452.59;10337171;28;96974;-66
2022/05/14 07:01:48;;;;;;;;;;;;;;;17.22;59.31;96459.03;10332703;28;96866;-67
2022/05/14 07:06:51;;;;;;;;;;;;;;;17.32;59.18;96454.28;10332802;28;96991;-66
2022/05/14 07:11:56;;;;;;;;;;;;;;;17.37;59.31;96449.28;10334591;28;96730;-67
2022/05/14 07:17:00;;;;;;;;;;;;;;;17.46;59.14;96449.19;10333807;28;96950;-66
2022/05/14 07:22:04;;;;;;;;;;;;;;;17.48;58.94;96441.88;10331179;28;96864;-66
2022/05/14 07:27:10;;;;;;;;;;;;;;;17.46;59.28;96447.34;10337276;28;97644;-67
2022/05/14 07:32:15;;;;;;;;;;;;;;;17.54;59.06;96449.03;10330046;28;96942;-67
2022/05/14 07:37:20;;;;;;;;;;;;;;;17.71;59.41;96445.16;10330447;28;96881;-67
2022/05/14 07:42:25;;;;;;;;;;;;;;;17.85;59.10;96442.69;10335119;28;96798;-67
2022/05/14 07:47:31;;;;;;;;;;;;;;;18.02;58.89;96445.91;10334913;28;99827;-67
2022/05/14 07:52:34;;;;;;;;;;;;;;;18.19;58.05;96446.47;10336980;28;96931;-67
2022/05/14 07:57:36;;;;;;;;;;;;;;;18.29;58.53;96436.38;10337927;28;96828;-67
2022/05/14 08:02:42;;;;;;;;;;;;;;;18.45;58.08;96440.56;10335140;28;96980;-66
2022/05/14 08:07:45;;;;;;;;;;;;;;;18.57;58.03;96438.19;10339088;28;101177;-66
2022/05/14 08:12:50;;;;;;;;;;;;;;;18.60;58.27;96437.81;10338149;28;96862;-67
2022/05/14 08:17:58;;;;;;;;;;;;;;;18.72;58.05;96436.25;10340429;28;96852;-66
2022/05/14 08:28:21;;;;;;;;;;;;;;;19.11;57.17;96437.53;10337130;28;96854;-67
2022/05/14 08:33:25;;;;;;;;;;;;;;;19.34;57.06;96439.88;10343388;28;96841;-66
2022/05/14 08:38:27;;;;;;;;;;;;;;;19.53;56.57;96443.63;10340200;28;96907;-67
2022/05/14 08:43:34;;;;;;;;;;;;;;;19.71;56.21;96439.56;10336977;28;96810;-67
2022/05/14 08:48:39;;;;;;;;;;;;;;;19.71;56.55;96434.28;10338970;28;96995;-67
2022/05/14 08:53:45;;;;;;;;;;;;;;;19.70;57.18;96430.00;10339661;28;97259;-66
2022/05/14 08:58:55;;;;;;;;;;;;;;;19.74;57.32;96433.88;10337570;28;96909;-66
2022/05/14 09:03:59;;;;;;;;;;;;;;;19.87;56.94;96428.66;10333863;28;96949;-67
2022/05/14 09:09:02;;;;;;;;;;;;;;;19.98;56.90;96424.56;10340659;28;97201;-67
2022/05/14 09:14:08;;;;;;;;;;;;;;;20.11;56.84;96423.75;10338319;28;96773;-67
2022/05/14 09:19:14;;;;;;;;;;;;;;;20.37;55.99;96423.78;10334034;28;98270;-67
2022/05/14 09:24:19;;;;;;;;;;;;;;;20.55;55.69;96425.00;10333403;28;97231;-67
2022/05/14 09:29:25;;;;;;;;;;;;;;;20.78;55.47;96429.88;10338761;28;97098;-67
2022/05/14 09:34:30;;;;;;;;;;;;;;;20.87;55.47;96427.81;10337629;28;96893;-67
2022/05/14 09:39:33;;;;;;;;;;;;;;;21.05;55.50;96414.69;10337982;28;96959;-66
2022/05/14 09:44:45;;;;;;;;;;;;;;;21.23;55.13;96415.84;10336094;28;96897;-67
2022/05/14 09:49:55;;;;;;;;;;;;;;;21.30;54.49;96409.47;10336924;28;98378;-67
2022/05/14 09:54:58;;;;;;;;;;;;;;;21.38;54.65;96408.44;10334537;28;97543;-67
2022/05/14 10:00:06;;;;;;;;;;;;;;;21.47;54.60;96411.66;10338797;28;98080;-67
2022/05/14 10:05:16;;;;;;;;;;;;;;;21.47;54.21;96401.84;10336318;28;96944;-67
2022/05/14 10:10:24;;;;;;;;;;;;;;;21.50;54.31;96401.41;10332684;28;96825;-66
2022/05/14 10:15:33;;;;;;;;;;;;;;;21.74;53.80;96396.38;10337939;28;96920;-67
2022/05/14 10:20:53;;;;;;;;;;;;;;;21.91;53.54;96401.22;10336160;28;97145;-67
2022/05/14 10:31:27;;;;;;;;;;;;;;;22.16;53.19;96394.06;10333004;28;97818;-66
2022/05/14 10:36:35;;;;;;;;;;;;;;;22.18;53.29;96381.34;10335104;28;97006;-67
2022/05/14 10:41:41;;;;;;;;;;;;;;;22.21;52.91;96383.59;10335259;28;97087;-66
2022/05/14 10:46:45;;;;;;;;;;;;;;;22.10;53.44;96372.81;10335024;28;96921;-66
2022/05/14 10:51:51;;;;;;;;;;;;;;;22.19;53.07;96366.19;10318073;28;97819;-67
2022/05/14 10:57:03;;;;;;;;;;;;;;;22.39;53.24;96366.03;10337529;28;96861;-67
2022/05/14 11:02:14;;;;;;;;;;;;;;;22.49;52.64;96361.03;10334438;28;98507;-67
2022/05/14 11:07:26;;;;;;;;;;;;;;;22.37;52.77;96362.75;10330848;28;97351;-66
2022/05/14 11:12:32;;;;;;;;;;;;;;;22.46;52.60;96361.47;10337140;28;97113;-67
2022/05/14 11:17:36;;;;;;;;;;;;;;;22.62;52.16;96355.56;10334024;28;96941;-67
2022/05/14 11:22:41;;;;;;;;;;;;;;;22.83;52.01;96350.03;10333108;28;96834;-67
2022/05/14 11:27:54;;;;;;;;;;;;;;;23.03;51.64;96349.78;10331896;28;96730;-67
2022/05/14 11:32:57;;;;;;;;;;;;;;;23.10;51.23;96346.00;10335491;28;96861;-67
2022/05/14 11:38:00;;;;;;;;;;;;;;;23.15;51.32;96332.00;10333627;28;97145;-66
2022/05/14 11:43:10;;;;;;;;;;;;;;;23.37;51.41;96319.84;10330910;28;96903;-67
2022/05/14 11:48:17;;;;;;;;;;;;;;;23.63;50.57;96322.34;10328930;28;97001;-67
2022/05/14 11:53:24;;;;;;;;;;;;;;;23.70;50.42;96315.88;10333512;28;96851;-67
2022/05/14 11:58:38;;;;;;;;;;;;;;;23.91;50.57;96317.19;10330857;28;96903;-67
2022/05/14 12:03:43;;;;;;;;;;;;;;;23.93;50.05;96314.28;10333553;28;97127;-67
2022/05/14 12:08:57;;;;;;;;;;;;;;;24.01;50.01;96305.13;10333759;28;99336;-67
2022/05/14 12:14:07;;;;;;;;;;;;;;;24.16;49.82;96307.34;10332926;28;96770;-67
2022/05/14 12:19:15;;;;;;;;;;;;;;;24.44;49.21;96296.78;10327513;28;97043;-67
2022/05/14 12:24:20;;;;;;;;;;;;;;;24.64;49.07;96280.41;10328732;28;96764;-67
2022/05/14 12:29:25;;;;;;;;;;;;;;;24.64;49.14;96282.25;10332791;28;97059;-67
2022/05/14 12:34:36;;;;;;;;;;;;;;;24.71;48.95;96274.09;10333363;28;96909;-66
2022/05/14 12:39:42;;;;;;;;;;;;;;;24.80;48.79;96273.50;10339385;28;97095;-67
2022/05/14 12:44:48;;;;;;;;;;;;;;;24.97;48.41;96270.09;10339332;28;96829;-67
2022/05/14 12:49:50;;;;;;;;;;;;;;;25.16;48.08;96260.03;10338643;28;96896;-67
2022/05/14 12:54:56;;;;;;;;;;;;;;;25.42;47.64;96247.91;10337708;28;96964;-67
2022/05/14 13:00:00;;;;;;;;;;;;;;;25.53;47.61;96238.19;10340466;28;96909;-67
2022/05/14 13:05:05;;;;;;;;;;;;;;;25.61;47.42;96238.63;10338867;28;97180;-67
2022/05/14 13:10:11;;;;;;;;;;;;;;;25.64;47.36;96240.00;10333299;28;98063;-67
2022/05/14 13:15:16;;;;;;;;;;;;;;;25.86;46.74;96234.75;10332645;28;96854;-67
2022/05/14 13:20:23;;;;;;;;;;;;;;;26.34;46.44;96227.91;10337754;28;96791;-67
2022/05/14 13:25:27;;;;;;;;;;;;;;;26.48;46.18;96212.28;10335553;28;96798;-66
2022/05/14 13:30:33;;;;;;;;;;;;;;;26.47;46.22;96215.25;10338618;28;96897;-67
2022/05/14 13:41:01;;;;;;;;;;;;;;;27.30;44.94;96212.38;10336973;28;96800;-67
2022/05/14 13:46:06;;;;;;;;;;;;;;;27.60;44.69;96211.00;10333484;28;96845;-67
2022/05/14 13:51:25;;;;;;;;;;;;;;;27.70;44.47;96204.94;10340451;28;97171;-67
2022/05/14 13:56:30;;;;;;;;;;;;;;;28.20;43.91;96199.09;10336705;28;96981;-66
2022/05/14 14:01:36;;;;;;;;;;;;;;;28.44;43.71;96193.28;10334140;28;96997;-68
2022/05/14 14:06:38;;;;;;;;;;;;;;;28.81;43.22;96186.94;10336629;28;97026;-67
2022/05/14 14:11:44;;;;;;;;;;;;;;;29.32;42.66;96197.81;10335482;28;96807;-68
2022/05/14 14:16:48;;;;;;;;;;;;;;;29.77;42.46;96184.66;10336709;28;99837;-68
2022/05/14 14:21:51;;;;;;;;;;;;;;;29.86;42.58;96183.00;10334747;28;97357;-68
2022/05/14 14:26:55;;;;;;;;;;;;;;;30.64;41.72;96167.41;10337177;28;96929;-68
2022/05/14 14:31:59;;;;;;;;;;;;;;;31.87;40.85;96160.31;10335786;28;96976;-68
2022/05/14 14:37:02;;;;;;;;;;;;;;;32.57;40.46;96151.69;10333661;28;97089;-68
2022/05/14 14:42:06;;;;;;;;;;;;;;;32.91;40.44;96161.53;10338079;28;97017;-68
2022/05/14 14:47:10;;;;;;;;;;;;;;;33.14;39.95;96149.00;10335349;28;96902;-68
2022/05/14 14:52:13;;;;;;;;;;;;;;;33.14;39.51;96149.00;10330103;28;97009;-68
2022/05/14 14:57:15;;;;;;;;;;;;;;;33.00;40.18;96157.03;10337571;28;96891;-68
2022/05/14 15:02:23;;;;;;;;;;;;;;;32.95;39.63;96156.31;10335344;28;96904;-68
2022/05/14 15:07:27;;;;;;;;;;;;;;;32.89;39.74;96153.69;10332606;28;99490;-68
2022/05/14 15:12:31;;;;;;;;;;;;;;;32.85;39.26;96157.25;10335161;28;99772;-68
2022/05/14 15:17:41;;;;;;;;;;;;;;;33.60;38.05;96144.75;10334850;28;96853;-68
2022/05/14 15:22:44;;;;;;;;;;;;;;;34.21;37.41;96153.66;10334478;28;96828;-68
2022/05/14 15:27:47;;;;;;;;;;;;;;;34.24;36.73;96153.06;10316200;28;98201;-68
2022/05/14 15:32:51;;;;;;;;;;;;;;;34.65;35.62;96138.66;10333977;28;96810;-69
2022/05/14 15:37:53;;;;;;;;;;;;;;;35.09;35.00;96145.28;10334323;28;96967;-69
2022/05/14 15:42:58;;;;;;;;;;;;;;;35.25;34.90;96147.66;10329739;28;96925;-69
2022/05/14 15:48:06;;;;;;;;;;;;;;;35.11;35.23;96140.38;10335759;28;96808;-69
2022/05/14 15:53:10;;;;;;;;;;;;;;;35.16;35.11;96144.84;10332846;28;96964;-68
2022/05/14 15:58:13;;;;;;;;;;;;;;;35.44;35.11;96133.88;10329635;28;96938;-68
2022/05/14 16:03:18;;;;;;;;;;;;;;;35.43;34.75;96132.28;10336671;28;97447;-69
2022/05/14 16:08:21;;;;;;;;;;;;;;;34.66;35.77;96126.72;10333343;28;96933;-69
2022/05/14 16:18:45;;;;;;;;;;;;;;;32.43;36.81;96119.13;10339930;28;96801;-68
2022/05/14 16:23:48;;;;;;;;;;;;;;;31.91;36.43;96126.22;10339282;28;96733;-68
2022/05/14 16:28:51;;;;;;;;;;;;;;;31.16;36.85;96122.84;10339469;28;96845;-68
2022/05/14 16:33:56;;;;;;;;;;;;;;;30.81;36.73;96119.34;10336392;28;96999;-68
2022/05/14 16:38:58;;;;;;;;;;;;;;;30.78;36.48;96119.88;10343165;28;97138;-68
2022/05/14 16:44:01;;;;;;;;;;;;;;;30.56;36.34;96114.06;10339048;28;97223;-68
2022/05/14 16:49:05;;;;;;;;;;;;;;;30.65;36.22;96112.38;10336513;28;96704;-68
2022/05/14 16:54:07;;;;;;;;;;;;;;;30.61;36.62;96112.13;10341594;28;99750;-68
2022/05/14 16:59:11;;;;;;;;;;;;;;;30.64;36.67;96105.41;10338758;28;96879;-68
2022/05/14 17:04:16;;;;;;;;;;;;;;;30.51;36.86;96114.91;10335001;28;98559;-68
2022/05/14 17:09:19;;;;;;;;;;;;;;;30.61;36.38;96114.03;10342034;28;96792;-68
2022/05/14 17:14:21;;;;;;;;;;;;;;;30.57;36.31;96110.31;10337542;28;96794;-68
2022/05/14 17:19:25;;;;;;;;;;;;;;;30.40;36.30;96119.53;10335156;28;96737;-68
2022/05/14 17:24:28;;;;;;;;;;;;;;;30.03;36.28;96109.97;10338036;28;96846;-68
2022/05/14 17:29:31;;;;;;;;;;;;;;;29.77;36.42;96106.56;10337836;28;96984;-68
2022/05/14 17:34:35;;;;;;;;;;;;;;;29.36;36.80;96112.78;10336431;28;99559;-68
2022/05/14 17:39:40;;;;;;;;;;;;;;;29.10;36.84;96111.19;10337816;28;98726;-68
2022/05/14 17:44:45;;;;;;;;;;;;;;;28.78;37.25;96107.66;10336517;28;96857;-68
2022/05/14 17:49:49;;;;;;;;;;;;;;;28.53;37.25;96100.38;10337291;28;97359;-68
2022/05/14 17:54:52;;;;;;;;;;;;;;;27.98;38.22;96112.50;10335468;28;96966;-68
2022/05/14 17:59:55;;;;;;;;;;;;;;;27.22;39.07;96110.94;10339020;28;96902;-68
2022/05/14 18:05:00;;;;;;;;;;;;;;;26.65;39.62;96105.03;10336794;28;97043;-67
2022/05/14 18:10:04;;;;;;;;;;;;;;;26.13;40.25;96109.00;10333742;28;96816;-68
2022/05/14 18:15:07;;;;;;;;;;;;;;;25.69;40.65;96110.88;10338245;28;96766;-68
2022/05/14 18:20:12;;;;;;;;;;;;;;;25.20;41.15;96112.28;10336164;28;96896;-67
2022/05/14 18:25:18;;;;;;;;;;;;;;;25.12;41.11;96118.03;10331962;28;97908;-67
2022/05/14 18:30:23;;;;;;;;;;;;;;;24.62;41.47;96116.06;10338189;28;96806;-68
2022/05/14 18:35:28;;;;;;;;;;;;;;;24.41;41.69;96121.03;10334922;28;97305;-67
2022/05/14 18:40:31;;;;;;;;;;;;;;;24.15;41.82;96108.25;10333865;28;96883;-67
2022/05/14 18:45:35;;;;;;;;;;;;;;;23.64;42.47;96111.47;10336068;28;97252;-68
2022/05/14 18:50:39;;;;;;;;;;;;;;;23.38;42.67;96121.53;10335921;28;97584;-67
2022/05/14 18:55:42;;;;;;;;;;;;;;;23.13;42.58;96131.56;10335598;28;96769;-67
2022/05/14 19:00:45;;;;;;;;;;;;;;;22.79;42.70;96120.63;10332989;28;96818;-67
2022/05/14 19:11:09;;;;;;;;;;;;;;;22.33;43.14;96124.72;10334520;28;97243;-67
2022/05/14 19:16:12;;;;;;;;;;;;;;;22.06;43.35;96125.84;10329692;28;97422;-67
2022/05/14 19:21:17;;;;;;;;;;;;;;;21.71;43.94;96136.28;10329461;28;96947;-67
2022/05/14 19:26:19;;;;;;;;;;;;;;;21.45;43.89;96135.47;10333985;28;97002;-67
2022/05/14 19:31:22;;;;;;;;;;;;;;;21.24;44.28;96143.81;10330182;28;97545;-67
2022/05/14 19:36:28;;;;;;;;;;;;;;;21.20;44.46;96145.31;10335347;28;96709;-67
2022/05/14 19:41:33;;;;;;;;;;;;;;;21.08;44.59;96151.31;10334533;28;96922;-66
2022/05/14 19:46:38;;;;;;;;;;;;;;;21.14;44.41;96147.00;10337501;28;97073;-67
2022/05/14 19:51:43;;;;;;;;;;;;;;;21.04;44.48;96160.75;10340621;28;96974;-67
2022/05/14 19:56:46;;;;;;;;;;;;;;;20.72;44.95;96159.88;10340296;28;96757;-67
2022/05/14 20:01:48;;;;;;;;;;;;;;;20.58;45.41;96169.78;10340257;28;96865;-67
2022/05/14 20:06:52;;;;;;;;;;;;;;;20.57;45.67;96178.78;10338642;28;96879;-67
2022/05/14 20:11:55;;;;;;;;;;;;;;;20.46;45.17;96177.59;10341722;28;96969;-67
2022/05/14 20:22:20;;;;;;;;;;;;;;;19.64;46.97;96185.16;10336697;28;96947;-67
2022/05/14 20:27:23;;;;;;;;;;;;;;;19.48;46.88;96198.84;10342330;28;98058;-67
2022/05/14 20:32:25;;;;;;;;;;;;;;;19.60;46.82;96187.41;10339932;28;96941;-67
2022/05/14 20:37:29;;;;;;;;;;;;;;;19.73;46.54;96188.41;10337330;28;96910;-67
2022/05/14 20:42:33;;;;;;;;;;;;;;;19.81;45.98;96196.13;10339989;28;98272;-66
2022/05/14 20:47:41;;;;;;;;;;;;;;;19.74;46.36;96188.19;10337991;28;96938;-66
2022/05/14 20:52:45;;;;;;;;;;;;;;;19.70;46.67;96189.63;10339273;28;98489;-67
2022/05/14 20:57:48;;;;;;;;;;;;;;;19.70;46.40;96199.44;10321383;28;96914;-66
2022/05/14 21:02:51;;;;;;;;;;;;;;;19.19;47.54;96204.34;10339063;28;97108;-66
2022/05/14 21:07:55;;;;;;;;;;;;;;;18.64;48.50;96199.13;10329468;28;97885;-66
2022/05/14 21:12:58;;;;;;;;;;;;;;;18.56;49.04;96203.78;10331435;28;97626;-66
2022/05/14 21:18:00;;;;;;;;;;;;;;;18.45;48.42;96203.31;10326141;28;98646;-66
2022/05/14 21:23:05;;;;;;;;;;;;;;;18.09;49.73;96206.22;10322233;28;97175;-66
2022/05/14 21:28:08;;;;;;;;;;;;;;;17.72;50.58;96203.75;10321347;28;97904;-65
2022/05/14 21:42:03;;;;;;;7.70;6.68;;;;;;;17.69;84.27;96201.47;10477837;27;97103;-70
2022/05/14 21:47:06;;;;;;;6.30;4.70;;;;;;;17.36;83.94;96207.34;10467253;27;97094;-70
2022/05/14 21:52:11;;;;;;;9.27;5.28;;;;;;;17.23;77.96;96201.13;10446906;27;97019;-68
2022/05/14 21:57:13;;;;;;;6.05;4.90;;;;;;;17.22;73.74;96205.59;10470639;27;97765;-68
2022/05/14 22:02:20;;;;;;;6.18;3.97;;;;;;;17.09;71.02;96214.22;10449499;27;96933;-68
2022/05/14 22:07:24;;;;;;;5.28;4.10;;;;;;;17.07;68.55;96207.50;10463616;27;96706;-69
2022/05/14 22:12:27;;;;;;;6.45;4.68;;;;;;;17.09;66.81;96202.84;10455913;27;97094;-68
2022/05/14 22:17:30;;;;;;;7.57;4.30;;;;;;;16.98;65.93;96207.63;10446063;27;98872;-68
2022/05/14 22:22:34;;;;;;;6.20;4.20;;;;;;;16.86;65.91;96208.31;10446575;27;96881;-68
2022/05/14 22:27:37;;;;;;;5.78;3.85;;;;;;;16.84;65.70;96203.22;10444737;27;96934;-69
2022/05/14 22:32:40;;;;;;;6.90;4.38;;;;;;;16.78;65.40;96211.91;10457078;27;97089;-68
2022/05/14 22:37:44;;;;;;;13.98;10.63;;;;;;;16.70;64.61;96217.25;10441839;27;97305;-68
2022/05/14 22:42:53;;;;;;;6.55;3.92;;;;;;;16.35;65.25;96222.34;10449154;27;98192;-68
2022/05/14 22:47:57;;;;;;;5.47;4.35;;;;;;;16.36;64.72;96213.41;10397690;27;97197;-68
2022/05/14 22:53:01;;;;;;;5.22;3.80;;;;;;;16.26;64.71;96213.72;10400306;27;98187;-69
2022/05/14 22:58:04;;;;;;;4.70;3.58;;;;;;;16.05;65.49;96215.28;10405887;27;96772;-68
2022/05/14 23:03:08;;;;;;;5.78;4.03;;;;;;;16.08;64.23;96210.63;10438549;27;96759;-68
2022/05/14 23:08:12;;;;;;;6.22;3.88;;;;;;;15.75;65.75;96209.16;10436294;27;97676;-68
2022/05/14 23:13:17;;;;;;;10.93;5.30;;;;;;;15.52;67.52;96208.41;10445284;27;97670;-68
2022/05/14 23:18:20;;;;;;;7.80;4.90;;;;;;;15.59;67.03;96204.06;10422550;27;96744;-68
2022/05/14 23:23:25;;;;;;;8.68;5.32;;;;;;;15.54;66.94;96209.03;10432695;27;99051;-69
2022/05/14 23:28:28;;;;;;;6.40;4.47;;;;;;;15.36;67.83;96214.63;10409464;28;96986;-68
2022/05/14 23:33:31;;;;;;;8.43;4.53;;;;;;;15.09;68.58;96212.38;10427596;27;97621;-68
2022/05/14 23:38:35;;;;;;;6.30;4.85;;;;;;;14.96;69.12;96208.69;10430679;27;97013;-68
2022/05/14 23:43:38;;;;;;;6.93;4.37;;;;;;;14.95;69.01;96207.88;10429017;27;96755;-68
2022/05/14 23:48:41;;;;;;;7.22;4.50;;;;;;;14.77;69.34;96204.72;10446258;27;96809;-68
2022/05/14 23:53:45;;;;;;;5.70;4.38;;;;;;;14.66;69.37;96198.88;10415263;27;97101;-68
